sensor_id;sensor_type;location;lat;lon;timestamp;temperature;humidity
24207;DHT22;12351;52.284;9.160;2022-12-07T00:00:20;3.60;99.90
24207;DHT22;12351;52.284;9.160;2022-12-07T00:03:14;3.60;99.90
24207;DHT22;12351;52.284;9.160;2022-12-07T00:06:05;3.60;99.90
24207;DHT22;12351;52.284;9.160;2022-12-07T00:08:57;3.60;99.90
24207;DHT22;12351;52.284;9.160;2022-12-07T00:14:44;3.70;99.90
24207;DHT22;12351;52.284;9.160;2022-12-07T00:17:34;3.70;99.90
24207;DHT22;12351;52.284;9.160;2022-12-07T00:23:17;3.70;99.90
24207;DHT22;12351;52.284;9.160;2022-12-07T00:26:06;3.70;99.90
24207;DHT22;12351;52.284;9.160;2022-12-07T00:28:58;3.70;99.90
24207;DHT22;12351;52.284;9.160;2022-12-07T00:31:48;3.70;99.90
24207;DHT22;12351;52.284;9.160;2022-12-07T00:34:39;3.80;99.90
24207;DHT22;12351;52.284;9.160;2022-12-07T00:37:41;3.80;99.90
24207;DHT22;12351;52.284;9.160;2022-12-07T00:40:31;3.80;99.90
24207;DHT22;12351;52.284;9.160;2022-12-07T00:43:19;3.80;99.90
24207;DHT22;12351;52.284;9.160;2022-12-07T00:46:09;3.80;99.90
24207;DHT22;12351;52.284;9.160;2022-12-07T00:49:13;3.80;99.90
24207;DHT22;12351;52.284;9.160;2022-12-07T00:52:04;3.80;99.90
24207;DHT22;12351;52.284;9.160;2022-12-07T00:55:07;3.80;99.90
24207;DHT22;12351;52.284;9.160;2022-12-07T01:04:17;3.80;99.90
24207;DHT22;12351;52.284;9.160;2022-12-07T01:13:54;3.80;99.90
24207;DHT22;12351;52.284;9.160;2022-12-07T01:23:29;3.90;99.90
24207;DHT22;12351;52.284;9.160;2022-12-07T01:26:27;3.90;99.90
24207;DHT22;12351;52.284;9.160;2022-12-07T01:29:22;3.90;99.90
24207;DHT22;12351;52.284;9.160;2022-12-07T01:35:57;3.90;99.90
24207;DHT22;12351;52.284;9.160;2022-12-07T01:42:24;3.90;99.90
24207;DHT22;12351;52.284;9.160;2022-12-07T01:48:55;3.90;99.90
24207;DHT22;12351;52.284;9.160;2022-12-07T02:01:32;3.90;99.90
24207;DHT22;12351;52.284;9.160;2022-12-07T02:04:24;3.90;99.90
24207;DHT22;12351;52.284;9.160;2022-12-07T02:07:16;3.90;99.90
24207;DHT22;12351;52.284;9.160;2022-12-07T02:16:43;3.90;99.90
24207;DHT22;12351;52.284;9.160;2022-12-07T02:31:03;3.90;99.90
24207;DHT22;12351;52.284;9.160;2022-12-07T02:33:54;3.90;99.90
24207;DHT22;12351;52.284;9.160;2022-12-07T02:36:42;3.80;99.90
24207;DHT22;12351;52.284;9.160;2022-12-07T02:42:12;3.70;99.90
24207;DHT22;12351;52.284;9.160;2022-12-07T02:44:59;3.60;99.90
24207;DHT22;12351;52.284;9.160;2022-12-07T02:47:51;3.60;99.90
24207;DHT22;12351;52.284;9.160;2022-12-07T02:50:38;3.50;99.90
24207;DHT22;12351;52.284;9.160;2022-12-07T02:53:29;3.50;99.90
24207;DHT22;12351;52.284;9.160;2022-12-07T02:59:02;3.40;99.90
24207;DHT22;12351;52.284;9.160;2022-12-07T03:01:50;3.40;99.90
24207;DHT22;12351;52.284;9.160;2022-12-07T03:18:43;3.30;99.90
24207;DHT22;12351;52.284;9.160;2022-12-07T03:21:31;3.20;99.90
24207;DHT22;12351;52.284;9.160;2022-12-07T03:24:20;3.20;99.90
24207;DHT22;12351;52.284;9.160;2022-12-07T03:27:11;3.20;99.90
24207;DHT22;12351;52.284;9.160;2022-12-07T03:30:02;3.20;99.90
24207;DHT22;12351;52.284;9.160;2022-12-07T03:35:41;3.20;99.90
24207;DHT22;12351;52.284;9.160;2022-12-07T03:44:00;3.20;99.90
24207;DHT22;12351;52.284;9.160;2022-12-07T03:58:00;3.20;99.90
24207;DHT22;12351;52.284;9.160;2022-12-07T04:00:49;3.10;99.90
24207;DHT22;12351;52.284;9.160;2022-12-07T04:03:37;3.10;99.90
24207;DHT22;12351;52.284;9.160;2022-12-07T04:06:24;3.10;99.90
24207;DHT22;12351;52.284;9.160;2022-12-07T04:09:11;3.10;99.90
24207;DHT22;12351;52.284;9.160;2022-12-07T04:12:01;3.10;99.90
24207;DHT22;12351;52.284;9.160;2022-12-07T04:14:48;3.10;99.90
24207;DHT22;12351;52.284;9.160;2022-12-07T04:17:36;3.10;99.90
24207;DHT22;12351;52.284;9.160;2022-12-07T04:20:23;3.10;99.90
24207;DHT22;12351;52.284;9.160;2022-12-07T04:23:10;3.10;99.90
24207;DHT22;12351;52.284;9.160;2022-12-07T04:25:59;3.10;99.90
24207;DHT22;12351;52.284;9.160;2022-12-07T04:28:46;3.10;99.90
24207;DHT22;12351;52.284;9.160;2022-12-07T04:31:33;3.10;99.90
24207;DHT22;12351;52.284;9.160;2022-12-07T04:34:21;3.10;99.90
24207;DHT22;12351;52.284;9.160;2022-12-07T04:37:08;3.10;99.90
24207;DHT22;12351;52.284;9.160;2022-12-07T04:39:55;3.10;99.90
24207;DHT22;12351;52.284;9.160;2022-12-07T04:42:42;3.10;99.90
24207;DHT22;12351;52.284;9.160;2022-12-07T04:45:30;3.10;99.90
24207;DHT22;12351;52.284;9.160;2022-12-07T04:48:17;3.10;99.90
24207;DHT22;12351;52.284;9.160;2022-12-07T04:51:04;3.10;99.90
24207;DHT22;12351;52.284;9.160;2022-12-07T04:53:51;3.10;99.90
24207;DHT22;12351;52.284;9.160;2022-12-07T04:56:38;3.10;99.90
24207;DHT22;12351;52.284;9.160;2022-12-07T04:59:26;3.10;99.90
24207;DHT22;12351;52.284;9.160;2022-12-07T05:02:13;3.00;99.90
24207;DHT22;12351;52.284;9.160;2022-12-07T05:05:00;3.10;99.90
24207;DHT22;12351;52.284;9.160;2022-12-07T05:07:47;3.10;99.90
24207;DHT22;12351;52.284;9.160;2022-12-07T05:10:34;3.10;99.90
24207;DHT22;12351;52.284;9.160;2022-12-07T05:13:22;3.10;99.90
24207;DHT22;12351;52.284;9.160;2022-12-07T05:16:09;3.10;99.90
24207;DHT22;12351;52.284;9.160;2022-12-07T05:18:56;3.10;99.90
24207;DHT22;12351;52.284;9.160;2022-12-07T05:21:43;3.10;99.90
24207;DHT22;12351;52.284;9.160;2022-12-07T05:24:30;3.10;99.90
24207;DHT22;12351;52.284;9.160;2022-12-07T05:27:17;3.10;99.90
24207;DHT22;12351;52.284;9.160;2022-12-07T05:30:05;3.10;99.90
24207;DHT22;12351;52.284;9.160;2022-12-07T05:32:53;3.10;99.90
24207;DHT22;12351;52.284;9.160;2022-12-07T05:35:40;3.10;99.90
24207;DHT22;12351;52.284;9.160;2022-12-07T05:38:27;3.10;99.90
24207;DHT22;12351;52.284;9.160;2022-12-07T05:41:17;3.10;99.90
24207;DHT22;12351;52.284;9.160;2022-12-07T05:44:05;3.10;99.90
24207;DHT22;12351;52.284;9.160;2022-12-07T05:46:53;3.10;99.90
24207;DHT22;12351;52.284;9.160;2022-12-07T05:52:30;3.10;99.90
24207;DHT22;12351;52.284;9.160;2022-12-07T05:55:17;3.10;99.90
24207;DHT22;12351;52.284;9.160;2022-12-07T05:58:04;3.10;99.90
24207;DHT22;12351;52.284;9.160;2022-12-07T06:00:56;3.10;99.90
24207;DHT22;12351;52.284;9.160;2022-12-07T06:03:43;3.10;99.90
24207;DHT22;12351;52.284;9.160;2022-12-07T06:06:31;3.10;99.90
24207;DHT22;12351;52.284;9.160;2022-12-07T06:09:20;3.10;99.90
24207;DHT22;12351;52.284;9.160;2022-12-07T06:12:10;3.10;99.90
24207;DHT22;12351;52.284;9.160;2022-12-07T06:14:58;3.10;99.90
24207;DHT22;12351;52.284;9.160;2022-12-07T06:17:45;3.10;99.90
24207;DHT22;12351;52.284;9.160;2022-12-07T06:20:34;3.10;99.90
24207;DHT22;12351;52.284;9.160;2022-12-07T06:23:21;3.10;99.90
24207;DHT22;12351;52.284;9.160;2022-12-07T06:26:08;3.10;99.90
24207;DHT22;12351;52.284;9.160;2022-12-07T06:28:55;3.10;99.90
24207;DHT22;12351;52.284;9.160;2022-12-07T06:31:42;3.10;99.90
24207;DHT22;12351;52.284;9.160;2022-12-07T06:34:29;3.10;99.90
24207;DHT22;12351;52.284;9.160;2022-12-07T06:37:16;3.10;99.90
24207;DHT22;12351;52.284;9.160;2022-12-07T06:40:04;3.10;99.90
24207;DHT22;12351;52.284;9.160;2022-12-07T06:42:51;3.10;99.90
24207;DHT22;12351;52.284;9.160;2022-12-07T06:45:38;3.10;99.90
24207;DHT22;12351;52.284;9.160;2022-12-07T06:48:27;3.10;99.90
24207;DHT22;12351;52.284;9.160;2022-12-07T06:51:14;3.10;99.90
24207;DHT22;12351;52.284;9.160;2022-12-07T06:54:03;3.10;99.90
24207;DHT22;12351;52.284;9.160;2022-12-07T06:56:50;3.10;99.90
24207;DHT22;12351;52.284;9.160;2022-12-07T06:59:37;3.10;99.90
24207;DHT22;12351;52.284;9.160;2022-12-07T07:02:24;3.00;99.90
24207;DHT22;12351;52.284;9.160;2022-12-07T07:05:13;3.10;99.90
24207;DHT22;12351;52.284;9.160;2022-12-07T07:08:02;3.10;99.90
24207;DHT22;12351;52.284;9.160;2022-12-07T07:10:49;3.10;99.90
24207;DHT22;12351;52.284;9.160;2022-12-07T07:13:36;3.00;99.90
24207;DHT22;12351;52.284;9.160;2022-12-07T07:16:24;3.00;99.90
24207;DHT22;12351;52.284;9.160;2022-12-07T07:19:11;3.00;99.90
24207;DHT22;12351;52.284;9.160;2022-12-07T07:21:58;3.00;99.90
24207;DHT22;12351;52.284;9.160;2022-12-07T07:24:45;3.00;99.90
24207;DHT22;12351;52.284;9.160;2022-12-07T07:27:32;3.00;99.90
24207;DHT22;12351;52.284;9.160;2022-12-07T07:30:20;3.10;99.90
24207;DHT22;12351;52.284;9.160;2022-12-07T07:33:07;3.00;99.90
24207;DHT22;12351;52.284;9.160;2022-12-07T07:35:56;3.00;99.90
24207;DHT22;12351;52.284;9.160;2022-12-07T07:38:43;3.10;99.90
24207;DHT22;12351;52.284;9.160;2022-12-07T07:41:31;3.00;99.90
24207;DHT22;12351;52.284;9.160;2022-12-07T07:44:19;3.00;99.90
24207;DHT22;12351;52.284;9.160;2022-12-07T07:47:06;3.00;99.90
24207;DHT22;12351;52.284;9.160;2022-12-07T07:49:53;3.00;99.90
24207;DHT22;12351;52.284;9.160;2022-12-07T07:52:42;3.10;99.90
24207;DHT22;12351;52.284;9.160;2022-12-07T07:55:28;3.10;99.90
24207;DHT22;12351;52.284;9.160;2022-12-07T07:58:16;3.10;99.90
24207;DHT22;12351;52.284;9.160;2022-12-07T08:01:05;3.00;99.90
24207;DHT22;12351;52.284;9.160;2022-12-07T08:03:52;3.00;99.90
24207;DHT22;12351;52.284;9.160;2022-12-07T08:06:39;3.00;99.90
24207;DHT22;12351;52.284;9.160;2022-12-07T08:09:27;3.10;99.90
24207;DHT22;12351;52.284;9.160;2022-12-07T08:12:15;3.00;99.90
24207;DHT22;12351;52.284;9.160;2022-12-07T08:15:02;3.00;99.90
24207;DHT22;12351;52.284;9.160;2022-12-07T08:17:50;3.10;99.90
24207;DHT22;12351;52.284;9.160;2022-12-07T08:20:38;3.10;99.90
24207;DHT22;12351;52.284;9.160;2022-12-07T08:23:26;3.10;99.90
24207;DHT22;12351;52.284;9.160;2022-12-07T08:26:15;3.10;99.90
24207;DHT22;12351;52.284;9.160;2022-12-07T08:29:02;3.10;99.90
24207;DHT22;12351;52.284;9.160;2022-12-07T08:31:50;3.10;99.90
24207;DHT22;12351;52.284;9.160;2022-12-07T08:34:37;3.10;99.90
24207;DHT22;12351;52.284;9.160;2022-12-07T08:37:24;3.10;99.90
24207;DHT22;12351;52.284;9.160;2022-12-07T08:40:12;3.10;99.90
24207;DHT22;12351;52.284;9.160;2022-12-07T08:43:01;3.10;99.90
24207;DHT22;12351;52.284;9.160;2022-12-07T08:51:29;3.00;99.90
24207;DHT22;12351;52.284;9.160;2022-12-07T08:54:17;3.10;99.90
24207;DHT22;12351;52.284;9.160;2022-12-07T08:57:05;3.10;99.90
24207;DHT22;12351;52.284;9.160;2022-12-07T08:59:53;3.00;99.90
24207;DHT22;12351;52.284;9.160;2022-12-07T09:02:41;3.10;99.90
24207;DHT22;12351;52.284;9.160;2022-12-07T09:05:29;3.10;99.90
24207;DHT22;12351;52.284;9.160;2022-12-07T09:08:16;3.10;99.90
24207;DHT22;12351;52.284;9.160;2022-12-07T09:11:04;3.10;99.90
24207;DHT22;12351;52.284;9.160;2022-12-07T09:13:51;3.20;99.90
24207;DHT22;12351;52.284;9.160;2022-12-07T09:16:38;3.20;99.90
24207;DHT22;12351;52.284;9.160;2022-12-07T09:19:26;3.10;99.90
24207;DHT22;12351;52.284;9.160;2022-12-07T09:22:13;3.20;99.90
24207;DHT22;12351;52.284;9.160;2022-12-07T09:25:01;3.20;99.90
24207;DHT22;12351;52.284;9.160;2022-12-07T09:27:54;3.20;99.90
24207;DHT22;12351;52.284;9.160;2022-12-07T09:30:37;3.10;99.90
24207;DHT22;12351;52.284;9.160;2022-12-07T09:33:28;3.20;99.90
24207;DHT22;12351;52.284;9.160;2022-12-07T09:36:13;3.20;99.90
24207;DHT22;12351;52.284;9.160;2022-12-07T09:39:00;3.20;99.90
24207;DHT22;12351;52.284;9.160;2022-12-07T09:41:48;3.20;99.90
24207;DHT22;12351;52.284;9.160;2022-12-07T09:44:36;3.20;99.90
24207;DHT22;12351;52.284;9.160;2022-12-07T09:47:23;3.20;99.90
24207;DHT22;12351;52.284;9.160;2022-12-07T09:50:13;3.30;99.90
24207;DHT22;12351;52.284;9.160;2022-12-07T09:53:06;3.30;99.90
24207;DHT22;12351;52.284;9.160;2022-12-07T09:55:50;3.30;99.90
24207;DHT22;12351;52.284;9.160;2022-12-07T09:58:38;3.40;99.90
24207;DHT22;12351;52.284;9.160;2022-12-07T10:01:27;3.50;99.90
24207;DHT22;12351;52.284;9.160;2022-12-07T10:04:17;3.50;99.90
24207;DHT22;12351;52.284;9.160;2022-12-07T10:07:03;3.40;99.90
24207;DHT22;12351;52.284;9.160;2022-12-07T10:09:50;3.50;99.90
24207;DHT22;12351;52.284;9.160;2022-12-07T10:21:12;3.70;99.90
24207;DHT22;12351;52.284;9.160;2022-12-07T10:24:03;3.70;99.90
24207;DHT22;12351;52.284;9.160;2022-12-07T10:37:50;3.60;99.90
24207;DHT22;12351;52.284;9.160;2022-12-07T10:40:39;3.70;99.90
24207;DHT22;12351;52.284;9.160;2022-12-07T10:43:26;3.70;99.90
24207;DHT22;12351;52.284;9.160;2022-12-07T10:49:09;3.70;99.90
24207;DHT22;12351;52.284;9.160;2022-12-07T10:54:52;3.70;99.90
24207;DHT22;12351;52.284;9.160;2022-12-07T11:00:31;3.80;99.90
24207;DHT22;12351;52.284;9.160;2022-12-07T11:09:04;4.00;99.90
24207;DHT22;12351;52.284;9.160;2022-12-07T11:25:54;4.10;99.90
24207;DHT22;12351;52.284;9.160;2022-12-07T11:28:50;4.20;99.90
24207;DHT22;12351;52.284;9.160;2022-12-07T11:37:14;4.40;99.90
24207;DHT22;12351;52.284;9.160;2022-12-07T11:40:05;4.30;99.90
24207;DHT22;12351;52.284;9.160;2022-12-07T11:42:57;4.30;99.90
24207;DHT22;12351;52.284;9.160;2022-12-07T11:45:44;4.20;99.90
24207;DHT22;12351;52.284;9.160;2022-12-07T11:48:45;4.20;99.90
24207;DHT22;12351;52.284;9.160;2022-12-07T11:51:24;4.20;99.90
24207;DHT22;12351;52.284;9.160;2022-12-07T11:54:15;4.20;99.90
24207;DHT22;12351;52.284;9.160;2022-12-07T11:57:07;4.10;99.90
24207;DHT22;12351;52.284;9.160;2022-12-07T12:05:33;4.30;99.90
24207;DHT22;12351;52.284;9.160;2022-12-07T12:08:25;4.20;99.90
24207;DHT22;12351;52.284;9.160;2022-12-07T12:19:34;4.30;99.90
24207;DHT22;12351;52.284;9.160;2022-12-07T12:22:24;4.20;99.90
24207;DHT22;12351;52.284;9.160;2022-12-07T12:28:03;4.20;99.90
24207;DHT22;12351;52.284;9.160;2022-12-07T12:33:44;4.30;99.90
24207;DHT22;12351;52.284;9.160;2022-12-07T12:41:53;4.30;99.90
24207;DHT22;12351;52.284;9.160;2022-12-07T12:45:02;4.30;99.90
24207;DHT22;12351;52.284;9.160;2022-12-07T12:50:25;4.20;99.90
24207;DHT22;12351;52.284;9.160;2022-12-07T12:53:19;4.30;99.90
24207;DHT22;12351;52.284;9.160;2022-12-07T13:01:43;4.40;99.90
24207;DHT22;12351;52.284;9.160;2022-12-07T13:04:38;4.30;99.90
24207;DHT22;12351;52.284;9.160;2022-12-07T13:13:25;4.40;99.90
24207;DHT22;12351;52.284;9.160;2022-12-07T13:18:43;4.40;99.90
24207;DHT22;12351;52.284;9.160;2022-12-07T13:24:12;4.40;99.90
24207;DHT22;12351;52.284;9.160;2022-12-07T13:27:00;4.50;99.90
24207;DHT22;12351;52.284;9.160;2022-12-07T13:29:48;4.40;99.90
24207;DHT22;12351;52.284;9.160;2022-12-07T13:32:35;4.40;99.90
24207;DHT22;12351;52.284;9.160;2022-12-07T13:43:59;4.40;99.90
24207;DHT22;12351;52.284;9.160;2022-12-07T13:49:37;4.40;99.90
24207;DHT22;12351;52.284;9.160;2022-12-07T13:52:25;4.30;99.90
24207;DHT22;12351;52.284;9.160;2022-12-07T13:55:14;4.30;99.90
24207;DHT22;12351;52.284;9.160;2022-12-07T13:58:01;4.20;99.90
24207;DHT22;12351;52.284;9.160;2022-12-07T14:00:48;4.20;99.90
24207;DHT22;12351;52.284;9.160;2022-12-07T14:03:36;4.20;99.90
24207;DHT22;12351;52.284;9.160;2022-12-07T14:06:26;4.20;99.90
24207;DHT22;12351;52.284;9.160;2022-12-07T14:11:57;4.10;99.90
24207;DHT22;12351;52.284;9.160;2022-12-07T14:14:46;4.10;99.90
24207;DHT22;12351;52.284;9.160;2022-12-07T14:17:35;4.10;99.90
24207;DHT22;12351;52.284;9.160;2022-12-07T14:26:05;4.10;99.90
24207;DHT22;12351;52.284;9.160;2022-12-07T14:28:52;4.00;99.90
24207;DHT22;12351;52.284;9.160;2022-12-07T14:31:39;4.00;99.90
24207;DHT22;12351;52.284;9.160;2022-12-07T14:34:26;4.00;99.90
24207;DHT22;12351;52.284;9.160;2022-12-07T14:37:13;4.00;99.90
24207;DHT22;12351;52.284;9.160;2022-12-07T14:40:00;4.00;99.90
24207;DHT22;12351;52.284;9.160;2022-12-07T14:42:51;4.00;99.90
24207;DHT22;12351;52.284;9.160;2022-12-07T14:45:39;4.00;99.90
24207;DHT22;12351;52.284;9.160;2022-12-07T14:48:26;4.00;99.90
24207;DHT22;12351;52.284;9.160;2022-12-07T14:51:14;4.00;99.90
24207;DHT22;12351;52.284;9.160;2022-12-07T14:54:01;4.00;99.90
24207;DHT22;12351;52.284;9.160;2022-12-07T14:56:49;3.90;99.90
24207;DHT22;12351;52.284;9.160;2022-12-07T14:59:43;3.90;99.90
24207;DHT22;12351;52.284;9.160;2022-12-07T15:02:31;3.90;99.90
24207;DHT22;12351;52.284;9.160;2022-12-07T15:08:12;3.80;99.90
24207;DHT22;12351;52.284;9.160;2022-12-07T15:10:59;3.70;99.90
24207;DHT22;12351;52.284;9.160;2022-12-07T15:13:46;3.80;99.90
24207;DHT22;12351;52.284;9.160;2022-12-07T15:16:37;3.70;99.90
24207;DHT22;12351;52.284;9.160;2022-12-07T15:19:27;3.70;99.90
24207;DHT22;12351;52.284;9.160;2022-12-07T15:22:14;3.70;99.90
24207;DHT22;12351;52.284;9.160;2022-12-07T15:25:03;3.70;99.90
24207;DHT22;12351;52.284;9.160;2022-12-07T15:27:52;3.70;99.90
24207;DHT22;12351;52.284;9.160;2022-12-07T15:30:40;3.70;99.90
24207;DHT22;12351;52.284;9.160;2022-12-07T15:33:28;3.60;99.90
24207;DHT22;12351;52.284;9.160;2022-12-07T15:36:18;3.60;99.90
24207;DHT22;12351;52.284;9.160;2022-12-07T15:39:06;3.50;99.90
24207;DHT22;12351;52.284;9.160;2022-12-07T15:41:53;3.50;99.90
24207;DHT22;12351;52.284;9.160;2022-12-07T15:44:40;3.40;99.90
24207;DHT22;12351;52.284;9.160;2022-12-07T15:47:29;3.40;99.90
24207;DHT22;12351;52.284;9.160;2022-12-07T15:50:17;3.40;99.90
24207;DHT22;12351;52.284;9.160;2022-12-07T15:53:04;3.40;99.90
24207;DHT22;12351;52.284;9.160;2022-12-07T15:55:51;3.40;99.90
24207;DHT22;12351;52.284;9.160;2022-12-07T15:58:38;3.40;99.90
24207;DHT22;12351;52.284;9.160;2022-12-07T16:01:26;3.40;99.90
24207;DHT22;12351;52.284;9.160;2022-12-07T16:04:13;3.30;99.90
24207;DHT22;12351;52.284;9.160;2022-12-07T16:07:00;3.30;99.90
24207;DHT22;12351;52.284;9.160;2022-12-07T16:09:48;3.30;99.90
24207;DHT22;12351;52.284;9.160;2022-12-07T16:12:36;3.30;99.90
24207;DHT22;12351;52.284;9.160;2022-12-07T16:15:22;3.20;99.90
24207;DHT22;12351;52.284;9.160;2022-12-07T16:18:11;3.30;99.90
24207;DHT22;12351;52.284;9.160;2022-12-07T16:20:58;3.30;99.90
24207;DHT22;12351;52.284;9.160;2022-12-07T16:23:46;3.30;99.90
24207;DHT22;12351;52.284;9.160;2022-12-07T16:26:33;3.30;99.90
24207;DHT22;12351;52.284;9.160;2022-12-07T16:29:22;3.30;99.90
24207;DHT22;12351;52.284;9.160;2022-12-07T16:32:12;3.30;99.90
24207;DHT22;12351;52.284;9.160;2022-12-07T16:35:00;3.30;99.90
24207;DHT22;12351;52.284;9.160;2022-12-07T16:37:47;3.30;99.90
24207;DHT22;12351;52.284;9.160;2022-12-07T16:40:34;3.30;99.90
24207;DHT22;12351;52.284;9.160;2022-12-07T16:43:21;3.30;99.90
24207;DHT22;12351;52.284;9.160;2022-12-07T16:46:08;3.20;99.90
24207;DHT22;12351;52.284;9.160;2022-12-07T16:48:56;3.20;99.90
24207;DHT22;12351;52.284;9.160;2022-12-07T16:51:43;3.20;99.90
24207;DHT22;12351;52.284;9.160;2022-12-07T16:54:30;3.20;99.90
24207;DHT22;12351;52.284;9.160;2022-12-07T16:57:18;3.20;99.90
24207;DHT22;12351;52.284;9.160;2022-12-07T17:00:06;3.10;99.90
24207;DHT22;12351;52.284;9.160;2022-12-07T17:02:53;3.10;99.90
24207;DHT22;12351;52.284;9.160;2022-12-07T17:05:42;3.10;99.90
24207;DHT22;12351;52.284;9.160;2022-12-07T17:08:31;3.10;99.90
24207;DHT22;12351;52.284;9.160;2022-12-07T17:11:20;3.10;99.90
24207;DHT22;12351;52.284;9.160;2022-12-07T17:14:08;3.10;99.90
24207;DHT22;12351;52.284;9.160;2022-12-07T17:16:56;3.20;99.90
24207;DHT22;12351;52.284;9.160;2022-12-07T17:19:43;3.20;99.90
24207;DHT22;12351;52.284;9.160;2022-12-07T17:22:31;3.20;99.90
24207;DHT22;12351;52.284;9.160;2022-12-07T17:25:19;3.20;99.90
24207;DHT22;12351;52.284;9.160;2022-12-07T17:28:06;3.20;99.90
24207;DHT22;12351;52.284;9.160;2022-12-07T17:30:53;3.20;99.90
24207;DHT22;12351;52.284;9.160;2022-12-07T17:33:41;3.20;99.90
24207;DHT22;12351;52.284;9.160;2022-12-07T17:36:30;3.20;99.90
24207;DHT22;12351;52.284;9.160;2022-12-07T17:39:18;3.20;99.90
24207;DHT22;12351;52.284;9.160;2022-12-07T17:42:05;3.20;99.90
24207;DHT22;12351;52.284;9.160;2022-12-07T17:44:54;3.20;99.90
24207;DHT22;12351;52.284;9.160;2022-12-07T17:47:41;3.20;99.90
24207;DHT22;12351;52.284;9.160;2022-12-07T17:50:28;3.20;99.90
24207;DHT22;12351;52.284;9.160;2022-12-07T17:53:17;3.20;99.90
24207;DHT22;12351;52.284;9.160;2022-12-07T17:56:04;3.20;99.90
24207;DHT22;12351;52.284;9.160;2022-12-07T17:58:51;3.20;99.90
24207;DHT22;12351;52.284;9.160;2022-12-07T18:01:39;3.20;99.90
24207;DHT22;12351;52.284;9.160;2022-12-07T18:04:26;3.20;99.90
24207;DHT22;12351;52.284;9.160;2022-12-07T18:07:14;3.20;99.90
24207;DHT22;12351;52.284;9.160;2022-12-07T18:10:01;3.20;99.90
24207;DHT22;12351;52.284;9.160;2022-12-07T18:12:48;3.20;99.90
24207;DHT22;12351;52.284;9.160;2022-12-07T18:15:35;3.20;99.90
24207;DHT22;12351;52.284;9.160;2022-12-07T18:18:22;3.10;99.90
24207;DHT22;12351;52.284;9.160;2022-12-07T18:21:12;3.20;99.90
24207;DHT22;12351;52.284;9.160;2022-12-07T18:24:02;3.10;99.90
24207;DHT22;12351;52.284;9.160;2022-12-07T18:26:49;3.10;99.90
24207;DHT22;12351;52.284;9.160;2022-12-07T18:29:38;3.10;99.90
24207;DHT22;12351;52.284;9.160;2022-12-07T18:32:25;3.20;99.90
24207;DHT22;12351;52.284;9.160;2022-12-07T18:35:14;3.10;99.90
24207;DHT22;12351;52.284;9.160;2022-12-07T18:38:02;3.10;99.90
24207;DHT22;12351;52.284;9.160;2022-12-07T18:40:50;3.10;99.90
24207;DHT22;12351;52.284;9.160;2022-12-07T18:43:37;3.10;99.90
24207;DHT22;12351;52.284;9.160;2022-12-07T18:46:25;3.10;99.90
24207;DHT22;12351;52.284;9.160;2022-12-07T18:49:14;3.10;99.90
24207;DHT22;12351;52.284;9.160;2022-12-07T18:54:51;3.10;99.90
24207;DHT22;12351;52.284;9.160;2022-12-07T18:57:38;3.10;99.90
24207;DHT22;12351;52.284;9.160;2022-12-07T19:00:27;3.10;99.90
24207;DHT22;12351;52.284;9.160;2022-12-07T19:03:15;3.10;99.90
24207;DHT22;12351;52.284;9.160;2022-12-07T19:08:53;3.20;99.90
24207;DHT22;12351;52.284;9.160;2022-12-07T19:11:40;3.20;99.90
24207;DHT22;12351;52.284;9.160;2022-12-07T19:14:32;3.10;99.90
24207;DHT22;12351;52.284;9.160;2022-12-07T19:17:20;3.10;99.90
24207;DHT22;12351;52.284;9.160;2022-12-07T19:20:11;3.10;99.90
24207;DHT22;12351;52.284;9.160;2022-12-07T19:22:58;3.10;99.90
24207;DHT22;12351;52.284;9.160;2022-12-07T19:25:45;3.10;99.90
24207;DHT22;12351;52.284;9.160;2022-12-07T19:28:32;3.10;99.90
24207;DHT22;12351;52.284;9.160;2022-12-07T19:31:19;3.10;99.90
24207;DHT22;12351;52.284;9.160;2022-12-07T19:34:09;3.00;99.90
24207;DHT22;12351;52.284;9.160;2022-12-07T19:36:56;3.00;99.90
24207;DHT22;12351;52.284;9.160;2022-12-07T19:39:44;3.00;99.90
24207;DHT22;12351;52.284;9.160;2022-12-07T19:42:33;3.00;99.90
24207;DHT22;12351;52.284;9.160;2022-12-07T19:45:21;3.00;99.90
24207;DHT22;12351;52.284;9.160;2022-12-07T19:48:08;3.00;99.90
24207;DHT22;12351;52.284;9.160;2022-12-07T19:51:00;3.00;99.90
24207;DHT22;12351;52.284;9.160;2022-12-07T19:53:43;3.00;99.90
24207;DHT22;12351;52.284;9.160;2022-12-07T19:56:32;3.00;99.90
24207;DHT22;12351;52.284;9.160;2022-12-07T19:59:22;3.00;99.90
24207;DHT22;12351;52.284;9.160;2022-12-07T20:02:12;3.00;99.90
24207;DHT22;12351;52.284;9.160;2022-12-07T20:04:59;3.00;99.90
24207;DHT22;12351;52.284;9.160;2022-12-07T20:07:46;3.00;99.90
24207;DHT22;12351;52.284;9.160;2022-12-07T20:10:33;3.00;99.90
24207;DHT22;12351;52.284;9.160;2022-12-07T20:13:20;3.00;99.90
24207;DHT22;12351;52.284;9.160;2022-12-07T20:16:09;3.00;99.90
24207;DHT22;12351;52.284;9.160;2022-12-07T20:21:49;3.10;99.90
24207;DHT22;12351;52.284;9.160;2022-12-07T20:24:36;3.10;99.90
24207;DHT22;12351;52.284;9.160;2022-12-07T20:27:24;3.10;99.90
24207;DHT22;12351;52.284;9.160;2022-12-07T20:30:11;3.10;99.90
24207;DHT22;12351;52.284;9.160;2022-12-07T20:32:58;3.10;99.90
24207;DHT22;12351;52.284;9.160;2022-12-07T20:35:46;3.10;99.90
24207;DHT22;12351;52.284;9.160;2022-12-07T20:38:33;3.10;99.90
24207;DHT22;12351;52.284;9.160;2022-12-07T20:41:20;3.10;99.90
24207;DHT22;12351;52.284;9.160;2022-12-07T20:44:09;3.10;99.90
24207;DHT22;12351;52.284;9.160;2022-12-07T20:46:56;3.10;99.90
24207;DHT22;12351;52.284;9.160;2022-12-07T20:49:43;3.10;99.90
24207;DHT22;12351;52.284;9.160;2022-12-07T20:52:30;3.10;99.90
24207;DHT22;12351;52.284;9.160;2022-12-07T20:55:17;3.10;99.90
24207;DHT22;12351;52.284;9.160;2022-12-07T20:58:05;3.10;99.90
24207;DHT22;12351;52.284;9.160;2022-12-07T21:00:58;3.00;99.90
24207;DHT22;12351;52.284;9.160;2022-12-07T21:03:40;3.00;99.90
24207;DHT22;12351;52.284;9.160;2022-12-07T21:06:29;3.10;99.90
24207;DHT22;12351;52.284;9.160;2022-12-07T21:09:16;3.10;99.90
24207;DHT22;12351;52.284;9.160;2022-12-07T21:12:04;3.10;99.90
24207;DHT22;12351;52.284;9.160;2022-12-07T21:14:53;3.10;99.90
24207;DHT22;12351;52.284;9.160;2022-12-07T21:17:39;3.10;99.90
24207;DHT22;12351;52.284;9.160;2022-12-07T21:20:26;3.10;99.90
24207;DHT22;12351;52.284;9.160;2022-12-07T21:23:13;3.10;99.90
24207;DHT22;12351;52.284;9.160;2022-12-07T21:28:52;3.10;99.90
24207;DHT22;12351;52.284;9.160;2022-12-07T21:31:40;3.10;99.90
24207;DHT22;12351;52.284;9.160;2022-12-07T21:34:27;3.00;99.90
24207;DHT22;12351;52.284;9.160;2022-12-07T21:37:14;3.10;99.90
24207;DHT22;12351;52.284;9.160;2022-12-07T21:40:02;3.10;99.90
24207;DHT22;12351;52.284;9.160;2022-12-07T21:42:52;3.10;99.90
24207;DHT22;12351;52.284;9.160;2022-12-07T21:45:39;3.10;99.90
24207;DHT22;12351;52.284;9.160;2022-12-07T21:48:26;3.10;99.90
24207;DHT22;12351;52.284;9.160;2022-12-07T21:51:13;3.10;99.90
24207;DHT22;12351;52.284;9.160;2022-12-07T21:54:01;3.10;99.90
24207;DHT22;12351;52.284;9.160;2022-12-07T21:56:49;3.10;99.90
24207;DHT22;12351;52.284;9.160;2022-12-07T21:59:36;3.10;99.90
24207;DHT22;12351;52.284;9.160;2022-12-07T22:02:23;3.10;99.90